East End, Ohio
Current Conditions -  °F | °C
As of 7:53 PM on Wednesday 22 Oct 2014 (Local Time) from KLUK Reporting Station
Overcast Overcast  
Wind Chill: 51°   Ceiling: 3100
Heat Index: 51°   Visibility: 10mi
Dew Point: 40°   Wind: 6mph
Humidity: 66%   Direction: 10°N
Pressure: 30.28"   Gusts: NA
Location:  39.1107°N, 84.4215°W
Report Text: KLUK 222353Z 01005KT 10SM OVC031 11/04 A3028 RMK AO2 SLP255 T01060044 10117 20100 53000
Loading
Personal Weather Stations






























Interactive Weather Map
Tropical Storm Tracking
New forecast layout! Learn more

10-Day Weather Forecast

Advertisements
Track Severe Weather on mobile